createdAt,value
2018-02-24T00:00:58.654Z,36.90
2018-02-24T00:01:58.643Z,40.80
2018-02-24T00:02:58.627Z,39.50
2018-02-24T00:03:58.608Z,41.80
2018-02-24T00:04:58.600Z,39.60
2018-02-24T00:05:58.583Z,40.30
2018-02-24T00:06:58.572Z,41.20
2018-02-24T00:07:58.572Z,38.10
2018-02-24T00:08:58.543Z,42.30
2018-02-24T00:09:58.522Z,40.70
2018-02-24T00:10:58.516Z,37.40
2018-02-24T00:11:58.495Z,40.10
2018-02-24T00:12:58.475Z,43.00
2018-02-24T00:13:58.464Z,40.00
2018-02-24T00:14:58.446Z,40.90
2018-02-24T00:15:58.426Z,39.10
2018-02-24T00:16:58.416Z,41.70
2018-02-24T00:17:58.401Z,39.60
2018-02-24T00:18:58.389Z,38.30
2018-02-24T00:19:58.377Z,42.60
2018-02-24T00:20:58.354Z,38.60
2018-02-24T00:21:58.347Z,37.60
2018-02-24T00:22:58.335Z,38.90
2018-02-24T00:23:58.322Z,41.00
2018-02-24T00:24:58.301Z,42.00
2018-02-24T00:25:58.286Z,37.30
2018-02-24T00:26:58.268Z,42.20
2018-02-24T00:27:58.251Z,41.80
2018-02-24T00:28:58.233Z,35.80
2018-02-24T00:29:58.235Z,40.80
2018-02-24T00:30:58.206Z,41.00
2018-02-24T00:31:58.197Z,40.40
2018-02-24T00:32:58.171Z,40.90
2018-02-24T00:33:58.168Z,40.40
2018-02-24T00:34:58.140Z,40.80
2018-02-24T00:35:58.129Z,36.90
2018-02-24T00:36:58.119Z,42.60
2018-02-24T00:37:58.099Z,41.80
2018-02-24T00:38:58.085Z,42.10
2018-02-24T00:39:58.073Z,42.80
2018-02-24T00:40:58.062Z,40.00
2018-02-24T00:41:58.042Z,42.90
2018-02-24T00:42:58.028Z,44.00
2018-02-24T00:43:58.022Z,39.30
2018-02-24T00:44:57.992Z,39.90
2018-02-24T00:45:57.978Z,42.20
2018-02-24T00:46:57.974Z,39.10
2018-02-24T00:47:57.952Z,34.70
2018-02-24T00:48:57.936Z,41.10
2018-02-24T00:49:57.918Z,40.80
2018-02-24T00:50:57.908Z,36.50
2018-02-24T00:51:57.891Z,39.80
2018-02-24T00:52:57.873Z,41.60
2018-02-24T00:53:57.885Z,40.80
2018-02-24T00:54:57.846Z,38.80
2018-02-24T00:55:57.831Z,39.20
2018-02-24T00:56:57.818Z,40.10
2018-02-24T00:57:57.804Z,43.10
2018-02-24T00:58:57.782Z,38.60
2018-02-24T00:59:57.783Z,44.60
2018-02-24T01:00:57.753Z,41.20
2018-02-24T01:01:57.739Z,40.50
2018-02-24T01:02:57.724Z,39.70
2018-02-24T01:03:57.709Z,38.10
2018-02-24T01:04:57.715Z,39.60
2018-02-24T01:05:57.679Z,41.70
2018-02-24T01:06:57.673Z,37.30
2018-02-24T01:07:57.648Z,40.60
2018-02-24T01:08:57.638Z,38.40
2018-02-24T01:09:57.619Z,41.60
2018-02-24T01:10:57.613Z,43.20
2018-02-24T01:11:57.588Z,41.40
2018-02-24T01:12:57.574Z,43.50
2018-02-24T01:13:57.561Z,42.40
2018-02-24T01:14:57.543Z,40.70
2018-02-24T01:15:57.525Z,41.80
2018-02-24T01:16:57.514Z,41.50
2018-02-24T01:17:57.499Z,40.00
2018-02-24T01:18:57.488Z,41.80
2018-02-24T01:19:57.474Z,40.00
2018-02-24T01:20:57.454Z,42.40
2018-02-24T01:21:57.436Z,39.70
2018-02-24T01:22:57.428Z,39.20
2018-02-24T01:23:57.409Z,42.70
2018-02-24T01:24:57.397Z,40.50
2018-02-24T01:25:57.376Z,36.10
2018-02-24T01:26:57.359Z,36.80
2018-02-24T01:27:57.344Z,36.60
2018-02-24T01:28:57.338Z,38.20
2018-02-24T01:29:57.327Z,41.90
2018-02-24T01:30:57.299Z,40.20
2018-02-24T01:31:57.280Z,40.70
2018-02-24T01:32:57.271Z,38.40
2018-02-24T01:33:57.265Z,42.50
2018-02-24T01:34:57.241Z,38.40
2018-02-24T01:35:57.220Z,41.80
2018-02-24T01:36:57.209Z,43.20
2018-02-24T01:37:57.196Z,42.40
2018-02-24T01:38:57.187Z,40.40
2018-02-24T01:39:57.166Z,38.60
2018-02-24T01:40:57.158Z,41.50
2018-02-24T01:41:57.132Z,37.40
2018-02-24T01:42:57.124Z,39.20
2018-02-24T01:43:57.107Z,39.20
2018-02-24T01:44:57.091Z,43.20
2018-02-24T01:45:57.084Z,39.50
2018-02-24T01:46:57.071Z,41.30
2018-02-24T01:47:57.045Z,43.10
2018-02-24T01:48:57.032Z,41.80
2018-02-24T01:49:57.019Z,39.90
2018-02-24T01:50:56.995Z,40.50
2018-02-24T01:51:56.985Z,40.60
2018-02-24T01:52:56.969Z,40.80
2018-02-24T01:53:56.957Z,39.30
2018-02-24T01:54:56.942Z,39.10
2018-02-24T01:55:56.926Z,40.00
2018-02-24T01:56:56.905Z,39.80
2018-02-24T01:57:56.897Z,37.70
2018-02-24T01:58:56.878Z,39.30
2018-02-24T01:59:56.875Z,38.30
2018-02-24T02:00:56.854Z,42.60
2018-02-24T02:01:56.833Z,41.50
2018-02-24T02:02:56.815Z,40.70
2018-02-24T02:03:56.803Z,42.40
2018-02-24T02:04:56.780Z,41.80
2018-02-24T02:05:56.775Z,38.90
2018-02-24T02:06:56.756Z,39.10
2018-02-24T02:07:56.746Z,39.90
2018-02-24T02:08:56.728Z,40.90
2018-02-24T02:09:56.712Z,39.80
2018-02-24T02:10:56.708Z,36.20
2018-02-24T02:11:56.683Z,41.30
2018-02-24T02:12:56.668Z,39.40
2018-02-24T02:13:56.655Z,41.80
2018-02-24T02:14:56.643Z,42.40
2018-02-24T02:15:56.620Z,38.30
2018-02-24T02:16:56.608Z,43.40
2018-02-24T02:17:56.594Z,42.20
2018-02-24T02:18:56.583Z,39.40
2018-02-24T02:19:56.567Z,42.40
2018-02-24T02:20:56.542Z,40.30
2018-02-24T02:21:56.538Z,39.30
2018-02-24T02:22:56.516Z,34.70
2018-02-24T02:23:56.497Z,44.10
2018-02-24T02:24:56.489Z,39.80
2018-02-24T02:25:56.467Z,38.70
2018-02-24T02:26:56.456Z,37.60
2018-02-24T02:27:56.432Z,42.20
2018-02-24T02:28:56.425Z,46.40
2018-02-24T02:29:56.417Z,42.30
2018-02-24T02:30:56.384Z,41.80
2018-02-24T02:31:56.379Z,42.40
2018-02-24T02:32:56.355Z,42.70
2018-02-24T02:33:56.347Z,41.00
2018-02-24T02:34:56.340Z,40.00
2018-02-24T02:35:56.316Z,37.10
2018-02-24T02:36:56.311Z,42.80
2018-02-24T02:37:56.285Z,41.20
2018-02-24T02:38:56.278Z,43.20
2018-02-24T02:39:56.258Z,39.40
2018-02-24T02:40:56.248Z,41.30
2018-02-24T02:41:56.233Z,41.10
2018-02-24T02:42:56.206Z,38.30
2018-02-24T02:43:56.196Z,39.50
2018-02-24T02:44:56.178Z,40.00
2018-02-24T02:45:56.162Z,39.80
2018-02-24T02:46:56.150Z,41.20
2018-02-24T02:47:56.136Z,39.90
2018-02-24T02:48:56.117Z,39.30
2018-02-24T02:49:56.113Z,40.80
2018-02-24T02:50:56.086Z,38.30
2018-02-24T02:51:56.070Z,38.60
2018-02-24T02:52:56.062Z,38.60
2018-02-24T02:53:56.044Z,40.20
2018-02-24T02:54:56.042Z,38.80
2018-02-24T02:55:56.008Z,40.90
2018-02-24T02:56:55.996Z,38.90
2018-02-24T02:57:55.985Z,37.80
2018-02-24T02:58:55.976Z,38.20
2018-02-24T02:59:55.975Z,36.40
2018-02-24T03:00:55.942Z,37.60
2018-02-24T03:01:55.920Z,36.00
2018-02-24T03:02:55.907Z,39.80
2018-02-24T03:03:55.892Z,33.40
2018-02-24T03:04:55.876Z,39.80
2018-02-24T03:05:55.869Z,41.20
2018-02-24T03:06:55.845Z,38.70
2018-02-24T03:07:55.831Z,39.80
2018-02-24T03:08:55.816Z,39.10
2018-02-24T03:09:55.795Z,42.40
2018-02-24T03:10:55.794Z,42.10
2018-02-24T03:11:55.765Z,39.70
2018-02-24T03:12:55.758Z,38.30
2018-02-24T03:13:55.739Z,34.60
2018-02-24T03:14:55.756Z,37.10
2018-02-24T03:15:55.708Z,38.80
2018-02-24T03:16:55.693Z,42.20
2018-02-24T03:17:55.681Z,36.90
2018-02-24T03:18:55.667Z,40.60
2018-02-24T03:19:55.643Z,41.70
2018-02-24T03:20:55.632Z,40.70
2018-02-24T03:21:55.618Z,40.10
2018-02-24T03:22:55.599Z,40.50
2018-02-24T03:23:55.585Z,39.40
2018-02-24T03:24:55.563Z,41.00
2018-02-24T03:25:55.552Z,42.00
2018-02-24T03:26:55.540Z,39.00
2018-02-24T03:27:55.533Z,44.30
2018-02-24T03:28:55.515Z,43.10
2018-02-24T03:29:55.505Z,38.20
2018-02-24T03:30:55.476Z,37.70
2018-02-24T03:31:55.464Z,41.30
2018-02-24T03:32:55.449Z,41.00
2018-02-24T03:33:55.434Z,39.80
2018-02-24T03:34:55.416Z,36.60
2018-02-24T03:35:55.404Z,40.10
2018-02-24T03:36:55.385Z,39.60
2018-02-24T03:37:55.372Z,39.40
2018-02-24T03:38:55.357Z,40.30
2018-02-24T03:39:55.340Z,41.60
2018-02-24T03:40:55.337Z,40.10
2018-02-24T03:41:55.315Z,38.30
2018-02-24T03:42:55.297Z,41.10
2018-02-24T03:43:55.279Z,40.00
2018-02-24T03:44:55.262Z,40.00
2018-02-24T03:45:55.251Z,41.80
2018-02-24T03:46:55.252Z,39.30
2018-02-24T03:47:55.216Z,43.90
2018-02-24T03:48:55.204Z,41.00
2018-02-24T03:49:55.192Z,45.20
2018-02-24T03:50:55.175Z,33.90
2018-02-24T03:51:55.162Z,39.30
2018-02-24T03:52:55.142Z,43.20
2018-02-24T03:53:55.133Z,37.30
2018-02-24T03:54:55.111Z,40.80
2018-02-24T03:55:55.100Z,40.50
2018-02-24T03:56:55.077Z,40.10
2018-02-24T03:57:55.068Z,39.70
2018-02-24T03:58:55.051Z,36.70
2018-02-24T03:59:55.044Z,37.70
2018-02-24T04:00:55.017Z,39.20
2018-02-24T04:01:55.007Z,37.50
2018-02-24T04:02:54.989Z,39.40
2018-02-24T04:03:54.976Z,41.90
2018-02-24T04:04:54.958Z,34.80
2018-02-24T04:05:54.945Z,40.70
2018-02-24T04:06:54.936Z,38.10
2018-02-24T04:07:54.909Z,40.20
2018-02-24T04:08:54.896Z,38.20
2018-02-24T04:09:54.881Z,41.00
2018-02-24T04:10:54.875Z,39.10
2018-02-24T04:11:54.855Z,40.80
2018-02-24T04:12:54.838Z,40.80
2018-02-24T04:13:54.815Z,33.80
2018-02-24T04:14:54.804Z,35.50
2018-02-24T04:15:54.799Z,40.20
2018-02-24T04:16:54.770Z,37.80
2018-02-24T04:17:54.758Z,36.70
2018-02-24T04:18:54.745Z,40.60
2018-02-24T04:19:54.732Z,39.20
2018-02-24T04:20:54.717Z,39.30
2018-02-24T04:21:54.697Z,41.30
2018-02-24T04:22:54.699Z,37.10
2018-02-24T04:23:54.662Z,44.50
2018-02-24T04:24:54.651Z,44.10
2018-02-24T04:25:54.636Z,39.70
2018-02-24T04:26:54.617Z,39.10
2018-02-24T04:27:54.601Z,40.10
2018-02-24T04:28:54.588Z,40.10
2018-02-24T04:29:54.584Z,43.80
2018-02-24T04:30:54.558Z,42.30
2018-02-24T04:31:54.546Z,40.70
2018-02-24T04:32:54.533Z,37.30
2018-02-24T04:33:54.528Z,36.10
2018-02-24T04:34:54.497Z,42.10
2018-02-24T04:35:54.479Z,39.10
2018-02-24T04:36:54.463Z,39.80
2018-02-24T04:37:54.456Z,37.30
2018-02-24T04:38:54.438Z,39.90
2018-02-24T04:39:54.422Z,42.60
2018-02-24T04:40:54.414Z,40.10
2018-02-24T04:41:54.394Z,40.60
2018-02-24T04:42:54.377Z,39.30
2018-02-24T04:43:54.360Z,38.60
2018-02-24T04:44:54.346Z,40.50
2018-02-24T04:45:54.340Z,39.20
2018-02-24T04:46:54.308Z,37.80
2018-02-24T04:47:54.306Z,35.70
2018-02-24T04:48:54.283Z,40.10
2018-02-24T04:49:54.275Z,44.30
2018-02-24T04:50:54.250Z,34.90
2018-02-24T04:51:54.233Z,35.70
2018-02-24T04:52:54.221Z,39.00
2018-02-24T04:53:54.199Z,36.90
2018-02-24T04:54:54.188Z,32.70
2018-02-24T04:55:54.176Z,39.50
2018-02-24T04:56:54.162Z,39.40
2018-02-24T04:57:54.147Z,38.60
2018-02-24T04:58:54.129Z,40.00
2018-02-24T04:59:54.120Z,38.60
2018-02-24T05:00:54.099Z,38.50
2018-02-24T05:01:54.087Z,40.80
2018-02-24T05:02:54.071Z,38.30
2018-02-24T05:03:54.054Z,36.70
2018-02-24T05:04:54.033Z,38.80
2018-02-24T05:05:54.021Z,41.20
2018-02-24T05:06:54.007Z,39.90
2018-02-24T05:07:53.990Z,40.00
2018-02-24T05:08:53.973Z,39.50
2018-02-24T05:09:53.960Z,38.40
2018-02-24T05:10:53.951Z,40.50
2018-02-24T05:11:53.929Z,39.30
2018-02-24T05:12:53.913Z,42.70
2018-02-24T05:13:53.899Z,41.70
2018-02-24T05:14:53.885Z,41.30
2018-02-24T05:15:53.870Z,40.30
2018-02-24T05:16:53.852Z,40.00
2018-02-24T05:17:53.833Z,40.90
2018-02-24T05:18:53.834Z,43.10
2018-02-24T05:19:53.804Z,43.80
2018-02-24T05:20:53.798Z,42.50
2018-02-24T05:21:53.765Z,42.70
2018-02-24T05:22:53.761Z,41.80
2018-02-24T05:23:53.739Z,41.90
2018-02-24T05:24:53.753Z,43.10
2018-02-24T05:25:53.718Z,41.40
2018-02-24T05:26:53.693Z,39.80
2018-02-24T05:27:53.680Z,45.70
2018-02-24T05:28:53.675Z,46.30
2018-02-24T05:29:53.660Z,42.30
2018-02-24T05:30:53.643Z,41.20
2018-02-24T05:31:53.622Z,37.50
2018-02-24T05:32:53.610Z,44.00
2018-02-24T05:33:53.590Z,40.10
2018-02-24T05:34:53.574Z,42.80
2018-02-24T05:35:53.559Z,35.20
2018-02-24T05:36:53.551Z,38.50
2018-02-24T05:37:53.528Z,37.90
2018-02-24T05:38:53.510Z,41.20
2018-02-24T05:39:53.493Z,39.80
2018-02-24T05:40:53.492Z,41.50
2018-02-24T05:41:53.467Z,44.80
2018-02-24T05:42:53.447Z,43.30
2018-02-24T05:43:53.448Z,43.60
2018-02-24T05:44:53.426Z,41.50
2018-02-24T05:45:53.407Z,40.30
2018-02-24T05:46:53.388Z,41.20
2018-02-24T05:47:53.371Z,41.30
2018-02-24T05:48:53.353Z,42.50
2018-02-24T05:49:53.342Z,42.70
2018-02-24T05:50:53.327Z,41.10
2018-02-24T05:51:53.311Z,42.00
2018-02-24T05:52:53.295Z,39.20
2018-02-24T05:53:53.294Z,40.60
2018-02-24T05:54:53.264Z,39.90
2018-02-24T05:55:53.251Z,42.10
2018-02-24T05:56:53.234Z,37.30
2018-02-24T05:57:53.220Z,41.00
2018-02-24T05:58:53.207Z,38.50
2018-02-24T05:59:53.193Z,41.20
2018-02-24T06:00:53.169Z,39.80
2018-02-24T06:01:53.155Z,41.90
2018-02-24T06:02:53.145Z,42.30
2018-02-24T06:03:53.137Z,34.50
2018-02-24T06:04:53.124Z,41.60
2018-02-24T06:05:53.103Z,44.50
2018-02-24T06:06:53.098Z,43.40
2018-02-24T06:07:53.076Z,40.70
2018-02-24T06:08:53.052Z,44.00
2018-02-24T06:09:53.044Z,43.00
2018-02-24T06:10:53.028Z,41.90
2018-02-24T06:11:53.015Z,44.00
2018-02-24T06:12:53.000Z,44.00
2018-02-24T06:13:52.985Z,43.90
2018-02-24T06:14:53.016Z,39.60
2018-02-24T06:15:52.988Z,38.00
2018-02-24T06:16:52.938Z,49.70
2018-02-24T06:17:52.924Z,47.40
2018-02-24T06:18:52.917Z,46.90
2018-02-24T06:19:52.893Z,45.80
2018-02-24T06:20:52.873Z,46.50
2018-02-24T06:21:52.854Z,49.40
2018-02-24T06:22:52.833Z,48.30
2018-02-24T06:23:52.820Z,49.10
2018-02-24T06:24:52.802Z,46.80
2018-02-24T06:25:52.778Z,44.90
2018-02-24T06:26:52.778Z,48.80
2018-02-24T06:27:52.758Z,51.10
2018-02-24T06:28:52.738Z,47.80
2018-02-24T06:29:52.728Z,49.40
2018-02-24T06:30:52.762Z,47.20
2018-02-24T06:31:52.695Z,46.20
2018-02-24T06:32:52.683Z,48.20
2018-02-24T06:33:52.679Z,48.30
2018-02-24T06:34:52.650Z,50.20
2018-02-24T06:35:52.636Z,49.30
2018-02-24T06:36:52.618Z,42.30
2018-02-24T06:37:52.603Z,52.10
2018-02-24T06:38:52.586Z,47.60
2018-02-24T06:39:52.583Z,42.70
2018-02-24T06:40:52.567Z,49.00
2018-02-24T06:41:52.544Z,45.10
2018-02-24T06:42:52.532Z,47.80
2018-02-24T06:43:52.508Z,47.90
2018-02-24T06:44:52.495Z,48.30
2018-02-24T06:45:52.480Z,48.70
2018-02-24T06:46:52.459Z,52.70
2018-02-24T06:47:52.493Z,46.90
2018-02-24T06:48:52.435Z,49.10
2018-02-24T06:49:52.422Z,52.50
2018-02-24T06:50:52.398Z,48.70
2018-02-24T06:51:52.386Z,42.80
2018-02-24T06:52:52.372Z,49.80
2018-02-24T06:53:52.358Z,49.50
2018-02-24T06:54:52.347Z,52.40
2018-02-24T06:55:52.338Z,49.40
2018-02-24T06:56:52.314Z,46.10
2018-02-24T06:57:52.293Z,45.40
2018-02-24T06:58:53.259Z,54.20
2018-02-24T06:59:52.277Z,50.50
2018-02-24T07:00:52.256Z,48.80
2018-02-24T07:01:52.241Z,46.70
2018-02-24T07:02:52.226Z,48.30
2018-02-24T07:03:52.212Z,51.10
2018-02-24T07:04:52.195Z,49.50
2018-02-24T07:05:52.182Z,49.90
2018-02-24T07:06:52.164Z,48.50
2018-02-24T07:07:52.153Z,47.70
2018-02-24T07:08:52.136Z,44.50
2018-02-24T07:09:52.118Z,48.50
2018-02-24T07:10:52.122Z,47.10
2018-02-24T07:11:52.114Z,48.40
2018-02-24T07:12:52.073Z,44.70
2018-02-24T07:13:52.057Z,46.70
2018-02-24T07:14:52.042Z,46.70
2018-02-24T07:15:52.028Z,45.90
2018-02-24T07:16:52.015Z,46.80
2018-02-24T07:17:52.007Z,40.20
2018-02-24T07:18:51.982Z,46.00
2018-02-24T07:19:52.037Z,43.10
2018-02-24T07:20:51.958Z,46.00
2018-02-24T07:21:51.935Z,44.90
2018-02-24T07:22:51.920Z,46.10
2018-02-24T07:23:51.905Z,44.40
2018-02-24T07:24:51.929Z,45.10
2018-02-24T07:25:51.874Z,42.30
2018-02-24T07:26:52.760Z,43.50
2018-02-24T07:27:51.844Z,47.20
2018-02-24T07:28:51.826Z,46.60
2018-02-24T07:29:51.813Z,41.90
2018-02-24T07:30:51.796Z,44.10
2018-02-24T07:31:51.776Z,40.60
2018-02-24T07:32:51.758Z,43.10
2018-02-24T07:33:51.757Z,42.10
2018-02-24T07:34:51.735Z,43.00
2018-02-24T07:35:51.725Z,43.50
2018-02-24T07:36:51.731Z,45.40
2018-02-24T07:37:51.707Z,46.50
2018-02-24T07:38:52.260Z,45.20
2018-02-24T07:39:51.690Z,45.20
2018-02-24T07:40:51.646Z,43.10
2018-02-24T07:41:51.633Z,47.50
2018-02-24T07:42:51.608Z,42.40
2018-02-24T07:43:51.599Z,50.80
2018-02-24T07:44:51.585Z,45.10
2018-02-24T07:45:51.572Z,47.60
2018-02-24T07:46:51.563Z,48.60
2018-02-24T07:47:51.540Z,43.90
2018-02-24T07:48:51.521Z,45.00
2018-02-24T07:49:51.510Z,46.30
2018-02-24T07:50:51.501Z,45.70
2018-02-24T07:51:51.481Z,42.90
2018-02-24T07:52:51.493Z,42.20
2018-02-24T07:53:51.461Z,45.10
2018-02-24T07:54:51.431Z,48.70
2018-02-24T07:55:51.422Z,45.50
2018-02-24T07:56:51.397Z,35.90
2018-02-24T07:57:51.384Z,42.20
2018-02-24T07:58:51.366Z,46.10
2018-02-24T07:59:51.354Z,46.40
2018-02-24T08:00:51.353Z,43.80
2018-02-24T08:01:51.323Z,40.90
2018-02-24T08:02:51.320Z,43.70
2018-02-24T08:03:51.290Z,46.10
2018-02-24T08:04:51.281Z,39.40
2018-02-24T08:05:51.260Z,43.30
2018-02-24T08:06:51.246Z,37.20
2018-02-24T08:07:51.234Z,43.60
2018-02-24T08:08:51.216Z,40.10
2018-02-24T08:09:51.206Z,40.90
2018-02-24T08:10:51.186Z,40.30
2018-02-24T08:11:51.174Z,36.90
2018-02-24T08:12:51.171Z,41.60
2018-02-24T08:13:51.148Z,37.10
2018-02-24T08:14:51.133Z,40.80
2018-02-24T08:15:51.106Z,36.70
2018-02-24T08:16:51.095Z,33.90
2018-02-24T08:17:51.083Z,39.10
2018-02-24T08:18:51.067Z,36.60
2018-02-24T08:19:51.050Z,35.20
2018-02-24T08:20:51.038Z,35.40
2018-02-24T08:21:51.024Z,35.00
2018-02-24T08:22:51.035Z,37.40
2018-02-24T08:23:50.992Z,40.30
2018-02-24T08:24:50.978Z,37.60
2018-02-24T08:25:50.960Z,37.10
2018-02-24T08:26:51.008Z,38.90
2018-02-24T08:27:50.933Z,34.50
2018-02-24T08:28:50.914Z,33.00
2018-02-24T08:29:50.910Z,37.10
2018-02-24T08:30:50.904Z,32.00
2018-02-24T08:31:50.874Z,37.40
2018-02-24T08:32:50.870Z,36.70
2018-02-24T08:33:50.852Z,38.50
2018-02-24T08:34:50.838Z,36.20
2018-02-24T08:35:50.817Z,36.10
2018-02-24T08:36:50.804Z,37.80
2018-02-24T08:37:50.789Z,34.70
2018-02-24T08:38:50.773Z,38.40
2018-02-24T08:39:50.761Z,39.80
2018-02-24T08:40:50.749Z,36.10
2018-02-24T08:41:50.727Z,37.00
2018-02-24T08:42:50.712Z,33.00
2018-02-24T08:43:50.702Z,35.20
2018-02-24T08:44:50.679Z,38.60
2018-02-24T08:45:50.706Z,32.90
2018-02-24T08:46:50.654Z,44.00
2018-02-24T08:47:50.642Z,35.90
2018-02-24T08:48:50.626Z,40.20
2018-02-24T08:49:50.604Z,36.10
2018-02-24T08:50:50.597Z,33.60
2018-02-24T08:51:50.589Z,34.90
2018-02-24T08:52:50.574Z,37.50
2018-02-24T08:53:50.554Z,31.80
2018-02-24T08:54:50.546Z,35.50
2018-02-24T08:55:50.528Z,39.10
2018-02-24T08:56:50.511Z,33.80
2018-02-24T08:57:50.494Z,35.20
2018-02-24T08:58:50.482Z,32.30
2018-02-24T08:59:50.464Z,34.90
2018-02-24T09:00:50.465Z,33.80
2018-02-24T09:01:50.436Z,36.30
2018-02-24T09:02:50.427Z,37.00
2018-02-24T09:03:50.401Z,38.30
2018-02-24T09:04:50.397Z,37.20
2018-02-24T09:05:50.378Z,33.20
2018-02-24T09:06:50.364Z,35.10
2018-02-24T09:07:50.349Z,38.10
2018-02-24T09:08:50.338Z,37.30
2018-02-24T09:09:50.328Z,36.20
2018-02-24T09:10:50.324Z,39.90
2018-02-24T09:11:50.303Z,36.40
2018-02-24T09:12:50.295Z,36.30
2018-02-24T09:13:50.288Z,34.20
2018-02-24T09:14:50.264Z,38.70
2018-02-24T09:15:50.248Z,36.40
2018-02-24T09:16:50.249Z,41.00
2018-02-24T09:17:50.211Z,37.40
2018-02-24T09:18:50.208Z,42.20
2018-02-24T09:19:50.211Z,38.10
2018-02-24T09:20:50.168Z,37.30
2018-02-24T09:21:50.174Z,36.80
2018-02-24T09:22:50.138Z,40.50
2018-02-24T09:23:50.132Z,33.60
2018-02-24T09:24:50.117Z,34.40
2018-02-24T09:25:50.115Z,36.10
2018-02-24T09:26:50.091Z,32.10
2018-02-24T09:27:50.081Z,35.00
2018-02-24T09:28:50.062Z,36.20
2018-02-24T09:29:50.062Z,35.90
2018-02-24T09:30:50.054Z,35.40
2018-02-24T09:31:50.022Z,35.50
2018-02-24T09:32:50.018Z,38.20
2018-02-24T09:33:49.994Z,36.10
2018-02-24T09:34:49.977Z,39.60
2018-02-24T09:35:49.974Z,37.70
2018-02-24T09:36:49.955Z,37.60
2018-02-24T09:37:49.938Z,38.90
2018-02-24T09:38:49.974Z,39.70
2018-02-24T09:39:49.911Z,40.60
2018-02-24T09:40:49.904Z,41.20
2018-02-24T09:41:49.880Z,37.40
2018-02-24T09:42:49.871Z,36.50
2018-02-24T09:43:49.861Z,41.60
2018-02-24T09:44:49.857Z,38.70
2018-02-24T09:45:49.833Z,39.30
2018-02-24T09:46:49.816Z,31.60
2018-02-24T09:47:49.823Z,36.50
2018-02-24T09:48:49.790Z,36.90
2018-02-24T09:49:49.777Z,39.70
2018-02-24T09:50:49.767Z,35.00
2018-02-24T09:51:49.749Z,38.60
2018-02-24T09:52:49.739Z,39.30
2018-02-24T09:53:49.742Z,41.50
2018-02-24T09:54:49.710Z,41.00
2018-02-24T09:55:49.692Z,40.60
2018-02-24T09:56:49.688Z,42.50
2018-02-24T09:57:49.661Z,35.50
2018-02-24T09:58:49.659Z,43.00
2018-02-24T09:59:49.641Z,40.80
2018-02-24T10:00:49.627Z,41.90
2018-02-24T10:01:49.637Z,41.30
2018-02-24T10:02:49.604Z,40.90
2018-02-24T10:03:49.582Z,39.30
2018-02-24T10:04:49.578Z,35.60
2018-02-24T10:05:49.561Z,43.50
2018-02-24T10:06:49.549Z,37.90
2018-02-24T10:07:49.535Z,35.80
2018-02-24T10:08:49.524Z,44.40
2018-02-24T10:09:49.510Z,43.10
2018-02-24T10:10:49.495Z,41.40
2018-02-24T10:11:49.484Z,41.40
2018-02-24T10:12:49.475Z,40.30
2018-02-24T10:13:49.448Z,43.70
2018-02-24T10:14:49.431Z,38.10
2018-02-24T10:15:49.426Z,42.30
2018-02-24T10:16:49.416Z,43.00
2018-02-24T10:17:49.402Z,42.40
2018-02-24T10:18:49.389Z,38.80
2018-02-24T10:19:49.388Z,43.90
2018-02-24T10:20:49.361Z,44.40
2018-02-24T10:21:49.353Z,42.30
2018-02-24T10:22:49.339Z,42.80
2018-02-24T10:23:49.324Z,42.20
2018-02-24T10:24:49.322Z,40.70
2018-02-24T10:25:49.304Z,38.50
2018-02-24T10:26:49.287Z,40.10
2018-02-24T10:27:49.275Z,40.30
2018-02-24T10:28:49.265Z,33.30
2018-02-24T10:29:49.251Z,38.50
2018-02-24T10:30:49.242Z,33.80
2018-02-24T10:31:49.228Z,38.20
2018-02-24T10:32:49.209Z,37.80
2018-02-24T10:33:49.200Z,36.50
2018-02-24T10:34:49.202Z,37.40
2018-02-24T10:35:49.177Z,35.20
2018-02-24T10:36:49.161Z,35.90
2018-02-24T10:37:49.146Z,34.30
2018-02-24T10:38:49.144Z,39.60
2018-02-24T10:39:49.120Z,39.30
2018-02-24T10:40:49.110Z,38.90
2018-02-24T10:41:49.102Z,37.50
2018-02-24T10:42:49.089Z,34.00
2018-02-24T10:43:49.096Z,34.80
2018-02-24T10:44:49.061Z,34.90
2018-02-24T10:45:49.046Z,37.30
2018-02-24T10:46:49.043Z,34.00
2018-02-24T10:47:49.028Z,32.90
2018-02-24T10:48:49.010Z,31.60
2018-02-24T10:49:49.001Z,38.80
2018-02-24T10:50:48.987Z,36.40
2018-02-24T10:51:48.981Z,36.70
2018-02-24T10:52:48.969Z,34.80
2018-02-24T10:53:48.951Z,34.50
2018-02-24T10:54:48.935Z,34.50
2018-02-24T10:55:48.939Z,35.70
2018-02-24T10:56:48.922Z,38.10
2018-02-24T10:57:48.911Z,35.80
2018-02-24T10:58:48.888Z,35.50
2018-02-24T10:59:48.898Z,32.90
2018-02-24T11:00:48.875Z,36.70
2018-02-24T11:01:48.856Z,35.30
2018-02-24T11:02:48.848Z,36.50
2018-02-24T11:03:48.838Z,37.80
2018-02-24T11:04:48.821Z,33.00
2018-02-24T11:05:48.875Z,31.80
2018-02-24T11:06:48.801Z,31.20
2018-02-24T11:07:48.792Z,32.90
2018-02-24T11:08:48.782Z,33.30
2018-02-24T11:09:48.760Z,33.60
2018-02-24T11:10:48.771Z,34.60
2018-02-24T11:11:48.756Z,34.50
2018-02-24T11:12:48.734Z,35.00
2018-02-24T11:13:48.724Z,35.00
2018-02-24T11:14:48.709Z,36.20
2018-02-24T11:15:48.691Z,34.80
2018-02-24T11:16:48.685Z,33.40
2018-02-24T11:17:48.679Z,35.20
2018-02-24T11:18:48.665Z,33.90
2018-02-24T11:19:48.660Z,33.40
2018-02-24T11:20:48.646Z,32.20
2018-02-24T11:21:48.631Z,34.10
2018-02-24T11:22:48.624Z,33.60
2018-02-24T11:23:48.613Z,34.40
2018-02-24T11:24:48.598Z,34.00
2018-02-24T11:25:48.588Z,34.20
2018-02-24T11:26:48.578Z,31.70
2018-02-24T11:27:48.565Z,32.90
2018-02-24T11:28:48.558Z,32.30
2018-02-24T11:29:48.549Z,31.30
2018-02-24T11:30:48.535Z,30.20
2018-02-24T11:31:48.523Z,30.80
2018-02-24T11:32:48.513Z,27.80
2018-02-24T11:33:48.512Z,32.30
2018-02-24T11:34:48.500Z,29.30
2018-02-24T11:35:48.479Z,33.30
2018-02-24T11:36:48.471Z,32.20
2018-02-24T11:37:48.462Z,32.40
2018-02-24T11:38:48.456Z,30.60
2018-02-24T11:39:48.441Z,29.80
2018-02-24T11:40:48.436Z,30.40
2018-02-24T11:41:48.424Z,30.10
2018-02-24T11:42:48.405Z,30.70
2018-02-24T11:43:48.400Z,28.50
2018-02-24T11:44:48.391Z,31.80
2018-02-24T11:45:48.379Z,28.20
2018-02-24T11:46:48.362Z,30.90
2018-02-24T11:47:48.354Z,27.50
2018-02-24T11:48:48.348Z,26.40
2018-02-24T11:49:48.341Z,26.70
2018-02-24T11:50:48.325Z,25.90
2018-02-24T11:51:48.323Z,26.40
2018-02-24T11:52:48.312Z,27.30
2018-02-24T11:53:48.303Z,27.80
2018-02-24T11:54:48.285Z,29.40
2018-02-24T11:55:48.274Z,28.10
2018-02-24T11:56:48.266Z,29.60
2018-02-24T11:57:48.252Z,26.60
2018-02-24T11:58:48.784Z,26.90
2018-02-24T11:59:48.240Z,28.20
2018-02-24T12:00:48.225Z,26.60
2018-02-24T12:01:48.218Z,27.90
2018-02-24T12:02:48.209Z,28.40
2018-02-24T12:03:48.203Z,27.90
2018-02-24T12:04:48.206Z,26.30
2018-02-24T12:05:48.182Z,25.20
2018-02-24T12:06:48.177Z,28.10
2018-02-24T12:07:48.163Z,29.00
2018-02-24T12:08:48.162Z,23.70
2018-02-24T12:09:48.174Z,27.70
2018-02-24T12:10:48.139Z,27.30
2018-02-24T12:11:48.129Z,25.50
2018-02-24T12:12:48.130Z,25.20
2018-02-24T12:13:48.142Z,27.80
2018-02-24T12:14:48.102Z,26.10
2018-02-24T12:15:48.097Z,27.00
2018-02-24T12:16:48.086Z,26.00
2018-02-24T12:17:48.147Z,27.10
2018-02-24T12:18:48.070Z,26.10
2018-02-24T12:19:48.058Z,26.70
2018-02-24T12:20:48.054Z,28.30
2018-02-24T12:21:48.046Z,25.10
2018-02-24T12:22:48.035Z,27.10
2018-02-24T12:23:48.028Z,28.40
2018-02-24T12:24:48.037Z,25.70
2018-02-24T12:25:48.007Z,26.60
2018-02-24T12:26:48.022Z,22.90
2018-02-24T12:27:47.989Z,25.10
2018-02-24T12:28:47.981Z,26.80
2018-02-24T12:29:47.973Z,25.60
2018-02-24T12:30:47.963Z,24.50
2018-02-24T12:31:47.957Z,26.90
2018-02-24T12:32:47.949Z,26.00
2018-02-24T12:33:47.949Z,25.70
2018-02-24T12:35:08.943Z,24.60
2018-02-24T12:35:47.925Z,27.80
2018-02-24T12:36:47.925Z,24.70
2018-02-24T12:37:47.904Z,24.30
2018-02-24T12:38:47.901Z,25.50
2018-02-24T12:39:47.899Z,26.60
2018-02-24T12:40:47.898Z,26.30
2018-02-24T12:41:47.889Z,26.40
2018-02-24T12:42:47.892Z,26.20
2018-02-24T12:43:47.877Z,24.20
2018-02-24T12:44:47.875Z,24.90
2018-02-24T12:45:47.869Z,26.70
2018-02-24T12:46:47.854Z,25.90
2018-02-24T12:47:47.855Z,24.80
2018-02-24T12:48:47.853Z,24.90
2018-02-24T12:49:47.876Z,24.70
2018-02-24T12:50:47.846Z,24.40
2018-02-24T12:51:47.828Z,25.60
2018-02-24T12:52:47.831Z,24.10